createdAt,value
2019-02-22T00:01:44.373Z,14.53
2019-02-22T00:04:13.738Z,13.90
2019-02-22T00:06:42.814Z,13.10
2019-02-22T00:09:12.134Z,14.37
2019-02-22T00:11:41.206Z,14.30
2019-02-22T00:14:10.262Z,13.70
2019-02-22T00:16:39.348Z,13.50
2019-02-22T00:19:08.413Z,13.07
2019-02-22T00:21:37.497Z,13.33
2019-02-22T00:24:06.555Z,14.17
2019-02-22T00:26:35.640Z,12.97
2019-02-22T00:29:04.706Z,12.77
2019-02-22T00:31:33.850Z,13.20
2019-02-22T00:34:02.925Z,13.70
2019-02-22T00:36:31.984Z,12.97
2019-02-22T00:39:01.059Z,12.73
2019-02-22T00:41:30.139Z,13.17
2019-02-22T00:43:59.201Z,12.30
2019-02-22T00:46:28.282Z,12.70
2019-02-22T00:48:57.342Z,12.70
2019-02-22T00:51:26.419Z,13.50
2019-02-22T00:53:55.483Z,13.70
2019-02-22T00:56:24.567Z,12.93
2019-02-22T00:58:53.622Z,12.53
2019-02-22T01:01:22.698Z,13.23
2019-02-22T01:03:51.832Z,12.53
2019-02-22T01:06:20.911Z,12.27
2019-02-22T01:08:50.005Z,12.43
2019-02-22T01:11:19.131Z,13.70
2019-02-22T01:13:48.194Z,12.73
2019-02-22T01:16:17.279Z,12.23
2019-02-22T01:18:46.343Z,13.23
2019-02-22T01:21:15.414Z,13.50
2019-02-22T01:23:44.481Z,13.53
2019-02-22T01:26:13.571Z,12.27
2019-02-22T01:28:42.635Z,12.67
2019-02-22T01:31:11.714Z,13.67
2019-02-22T01:33:40.766Z,14.03
2019-02-22T01:36:09.849Z,12.93
2019-02-22T01:38:38.917Z,13.03
2019-02-22T01:41:07.986Z,11.67
2019-02-22T01:43:37.054Z,12.83
2019-02-22T01:46:06.130Z,13.40
2019-02-22T01:48:35.196Z,13.13
2019-02-22T01:51:04.274Z,12.70
2019-02-22T01:53:33.353Z,12.60
2019-02-22T01:56:02.445Z,12.77
2019-02-22T01:58:31.504Z,13.67
2019-02-22T02:01:00.579Z,13.50
2019-02-22T02:03:29.667Z,12.97
2019-02-22T02:05:58.791Z,12.07
2019-02-22T02:08:27.861Z,12.67
2019-02-22T02:10:56.935Z,12.53
2019-02-22T02:13:26.004Z,11.87
2019-02-22T02:15:55.069Z,12.47
2019-02-22T02:18:24.147Z,12.20
2019-02-22T02:20:53.395Z,12.93
2019-02-22T02:23:22.541Z,13.37
2019-02-22T02:25:51.603Z,13.50
2019-02-22T02:28:20.680Z,13.73
2019-02-22T02:30:49.738Z,12.03
2019-02-22T02:33:18.818Z,12.73
2019-02-22T02:35:47.888Z,11.63
2019-02-22T02:38:16.963Z,11.53
2019-02-22T02:40:46.031Z,13.33
2019-02-22T02:43:15.110Z,12.97
2019-02-22T02:45:44.171Z,13.57
2019-02-22T02:48:13.310Z,12.30
2019-02-22T02:50:42.363Z,12.87
2019-02-22T02:53:11.446Z,12.67
2019-02-22T02:55:40.523Z,12.23
2019-02-22T02:58:09.613Z,11.87
2019-02-22T03:00:38.732Z,12.83
2019-02-22T03:03:07.824Z,12.33
2019-02-22T03:05:41.799Z,12.07
2019-02-22T03:08:10.896Z,13.70
2019-02-22T03:10:39.959Z,12.50
2019-02-22T03:13:09.314Z,12.33
2019-02-22T03:15:38.379Z,12.30
2019-02-22T03:18:07.459Z,13.50
2019-02-22T03:20:36.518Z,11.60
2019-02-22T03:23:05.596Z,13.57
2019-02-22T03:25:34.657Z,12.57
2019-02-22T03:28:03.735Z,12.47
2019-02-22T03:30:32.796Z,13.00
2019-02-22T03:33:01.870Z,13.43
2019-02-22T03:35:30.938Z,15.30
2019-02-22T03:38:00.010Z,14.20
2019-02-22T03:40:29.081Z,14.13
2019-02-22T03:42:58.158Z,14.80
2019-02-22T03:45:27.223Z,13.60
2019-02-22T03:47:56.307Z,13.43
2019-02-22T03:50:25.366Z,14.60
2019-02-22T03:52:56.075Z,15.30
2019-02-22T03:55:25.474Z,15.37
2019-02-22T03:57:54.545Z,15.67
2019-02-22T04:00:23.630Z,16.60
2019-02-22T04:02:52.777Z,16.60
2019-02-22T04:05:21.843Z,16.03
2019-02-22T04:07:50.912Z,16.23
2019-02-22T04:10:19.972Z,17.00
2019-02-22T04:12:49.048Z,17.83
2019-02-22T04:15:18.111Z,15.90
2019-02-22T04:17:47.190Z,16.70
2019-02-22T04:20:16.262Z,16.40
2019-02-22T04:22:45.333Z,17.97
2019-02-22T04:25:14.407Z,18.87
2019-02-22T04:27:43.458Z,16.90
2019-02-22T04:30:12.530Z,17.50
2019-02-22T04:32:41.595Z,17.13
2019-02-22T04:35:10.670Z,16.77
2019-02-22T04:37:39.739Z,17.63
2019-02-22T04:40:08.810Z,17.30
2019-02-22T04:42:37.876Z,18.93
2019-02-22T04:45:07.119Z,17.60
2019-02-22T04:47:36.183Z,17.00
2019-02-22T04:50:06.027Z,19.13
2019-02-22T04:52:35.095Z,17.47
2019-02-22T04:55:04.547Z,16.57
2019-02-22T04:57:33.612Z,18.73
2019-02-22T05:00:02.693Z,17.93
2019-02-22T05:02:31.748Z,17.87
2019-02-22T05:05:00.823Z,19.30
2019-02-22T05:07:29.883Z,17.87
2019-02-22T05:09:58.985Z,19.17
2019-02-22T05:12:28.106Z,19.67
2019-02-22T05:14:57.183Z,19.43
2019-02-22T05:17:26.243Z,18.80
2019-02-22T05:19:55.328Z,19.03
2019-02-22T05:22:24.387Z,17.93
2019-02-22T05:24:53.463Z,18.50
2019-02-22T05:27:22.529Z,19.37
2019-02-22T05:29:51.614Z,18.60
2019-02-22T05:32:20.682Z,18.63
2019-02-22T05:34:49.771Z,19.63
2019-02-22T05:37:18.837Z,18.50
2019-02-22T05:39:47.912Z,18.57
2019-02-22T05:42:22.923Z,21.97
2019-02-22T05:44:47.742Z,21.33
2019-02-22T05:47:16.795Z,21.77
2019-02-22T05:49:45.878Z,23.07
2019-02-22T05:52:14.940Z,22.37
2019-02-22T05:54:44.026Z,22.47
2019-02-22T05:57:14.272Z,23.13
2019-02-22T05:59:43.560Z,22.70
2019-02-22T06:02:14.618Z,24.27
2019-02-22T06:04:43.420Z,25.17
2019-02-22T06:07:14.521Z,23.83
2019-02-22T06:09:43.330Z,23.87
2019-02-22T06:12:12.454Z,25.63
2019-02-22T06:14:41.541Z,28.53
2019-02-22T06:17:14.497Z,28.73
2019-02-22T06:19:41.367Z,26.53
2019-02-22T06:22:10.435Z,26.87
2019-02-22T06:24:39.507Z,29.93
2019-02-22T06:27:08.567Z,31.40
2019-02-22T06:29:37.643Z,27.13
2019-02-22T06:32:06.712Z,27.70
2019-02-22T06:34:35.791Z,29.43
2019-02-22T06:37:04.856Z,27.73
2019-02-22T06:39:33.944Z,28.73
2019-02-22T06:42:03.002Z,30.20
2019-02-22T06:44:32.079Z,29.87
2019-02-22T06:47:01.223Z,31.83
2019-02-22T06:49:30.296Z,28.03
2019-02-22T06:51:59.379Z,29.57
2019-02-22T06:54:28.441Z,29.37
2019-02-22T06:56:57.515Z,30.63
2019-02-22T06:59:26.593Z,28.47
2019-02-22T07:01:55.646Z,28.77
2019-02-22T07:04:24.727Z,29.30
2019-02-22T07:06:53.790Z,27.63
2019-02-22T07:09:22.875Z,29.23
2019-02-22T07:12:05.623Z,26.73
2019-02-22T07:14:34.689Z,26.87
2019-02-22T07:17:03.758Z,27.43
2019-02-22T07:19:32.826Z,27.70
2019-02-22T07:22:01.891Z,25.07
2019-02-22T07:24:30.969Z,27.47
2019-02-22T07:27:00.116Z,28.67
2019-02-22T07:29:29.184Z,27.87
2019-02-22T07:32:05.967Z,28.60
2019-02-22T07:34:29.034Z,28.30
2019-02-22T07:36:58.153Z,28.53
2019-02-22T07:39:28.251Z,27.57
2019-02-22T07:41:57.475Z,26.90
2019-02-22T07:44:26.857Z,26.67
2019-02-22T07:46:55.936Z,28.73
2019-02-22T07:49:25.867Z,26.53
2019-02-22T07:51:54.967Z,25.43
2019-02-22T07:54:24.025Z,25.97
2019-02-22T07:56:53.106Z,26.17
2019-02-22T07:59:22.167Z,26.50
2019-02-22T08:01:51.244Z,26.33
2019-02-22T08:04:20.309Z,25.43
2019-02-22T08:06:49.392Z,25.07
2019-02-22T08:09:18.456Z,27.20
2019-02-22T08:11:48.193Z,25.60
2019-02-22T08:14:17.375Z,24.20
2019-02-22T08:16:46.444Z,26.57
2019-02-22T08:19:15.503Z,28.30
2019-02-22T08:21:44.578Z,25.93
2019-02-22T08:24:13.643Z,27.20
2019-02-22T08:26:42.718Z,25.47
2019-02-22T08:29:11.788Z,24.70
2019-02-22T08:31:40.924Z,24.20
2019-02-22T08:34:10.011Z,23.33
2019-02-22T08:36:39.094Z,23.17
2019-02-22T08:39:08.163Z,22.27
2019-02-22T08:41:37.234Z,22.20
2019-02-22T08:44:06.300Z,21.97
2019-02-22T08:46:35.454Z,21.47
2019-02-22T08:49:04.514Z,20.20
2019-02-22T08:51:33.595Z,20.27
2019-02-22T08:54:02.695Z,21.40
2019-02-22T08:56:31.806Z,20.67
2019-02-22T08:59:00.864Z,19.53
2019-02-22T09:01:29.945Z,19.10
2019-02-22T09:03:59.088Z,15.83
2019-02-22T09:06:28.150Z,17.47
2019-02-22T09:08:57.227Z,18.27
2019-02-22T09:11:26.299Z,18.90
2019-02-22T09:13:55.366Z,17.03
2019-02-22T09:16:24.435Z,19.63
2019-02-22T09:18:53.504Z,19.87
2019-02-22T09:21:22.570Z,21.43
2019-02-22T09:23:51.651Z,21.00
2019-02-22T09:26:20.719Z,19.77
2019-02-22T09:28:49.802Z,20.27
2019-02-22T09:31:18.877Z,19.43
2019-02-22T09:33:48.038Z,18.93
2019-02-22T09:36:17.235Z,20.00
2019-02-22T09:38:46.318Z,18.83
2019-02-22T09:41:15.385Z,19.73
2019-02-22T09:43:54.285Z,19.97
2019-02-22T09:46:15.227Z,18.17
2019-02-22T09:48:44.297Z,17.57
2019-02-22T09:51:13.358Z,17.77
2019-02-22T09:53:42.439Z,18.87
2019-02-22T09:56:11.507Z,17.33
2019-02-22T09:58:40.660Z,18.37
2019-02-22T10:01:09.735Z,16.63
2019-02-22T10:03:38.815Z,15.93
2019-02-22T10:06:07.874Z,15.40
2019-02-22T10:08:36.937Z,16.03
2019-02-22T10:11:06.015Z,16.13
2019-02-22T10:13:35.092Z,15.07
2019-02-22T10:16:04.150Z,17.60
2019-02-22T10:18:33.226Z,15.37
2019-02-22T10:21:02.303Z,14.90
2019-02-22T10:23:31.370Z,16.80
2019-02-22T10:26:00.502Z,14.80
2019-02-22T10:28:29.590Z,13.57
2019-02-22T10:30:58.670Z,16.33
2019-02-22T10:33:36.200Z,15.63
2019-02-22T10:35:58.763Z,15.03
2019-02-22T10:38:27.847Z,12.73
2019-02-22T10:40:56.914Z,14.67
2019-02-22T10:43:25.983Z,14.07
2019-02-22T10:45:55.046Z,13.67
2019-02-22T10:48:24.122Z,12.50
2019-02-22T10:50:53.186Z,12.30
2019-02-22T10:53:22.258Z,11.97
2019-02-22T10:55:51.333Z,10.50
2019-02-22T10:58:20.411Z,9.70
2019-02-22T11:00:49.483Z,9.97
2019-02-22T11:03:18.543Z,9.07
2019-02-22T11:05:47.609Z,9.33
2019-02-22T11:08:16.682Z,9.03
2019-02-22T11:10:45.741Z,9.37
2019-02-22T11:13:14.814Z,8.63
2019-02-22T11:15:43.874Z,7.77
2019-02-22T11:18:12.943Z,7.67
2019-02-22T11:20:42.013Z,7.27
2019-02-22T11:23:11.089Z,7.23
2019-02-22T11:25:40.147Z,6.77
2019-02-22T11:28:09.234Z,6.90
2019-02-22T11:30:38.279Z,7.57
2019-02-22T11:33:07.346Z,7.80
2019-02-22T11:35:36.408Z,7.97
2019-02-22T11:38:05.485Z,8.33
2019-02-22T11:40:34.559Z,7.63
2019-02-22T11:43:03.697Z,7.57
2019-02-22T11:45:32.761Z,7.70
2019-02-22T11:48:09.180Z,7.33
2019-02-22T11:50:32.609Z,7.43
2019-02-22T11:53:01.732Z,7.07
2019-02-22T11:55:30.800Z,7.97
2019-02-22T11:57:59.858Z,8.17
2019-02-22T12:00:29.138Z,8.07
2019-02-22T12:02:58.217Z,7.67
2019-02-22T12:05:27.295Z,7.20
2019-02-22T12:07:56.434Z,7.40
2019-02-22T12:10:25.504Z,8.87
2019-02-22T12:12:54.559Z,8.67
2019-02-22T12:15:23.635Z,8.03
2019-02-22T12:17:52.691Z,7.57
2019-02-22T12:20:21.763Z,6.60
2019-02-22T12:22:50.845Z,5.83
2019-02-22T12:25:19.980Z,6.17
2019-02-22T12:27:49.030Z,4.73
2019-02-22T12:30:18.112Z,4.43
2019-02-22T12:32:47.178Z,4.47
2019-02-22T12:35:16.229Z,4.93
2019-02-22T12:37:45.309Z,4.80
2019-02-22T12:40:14.370Z,5.27
2019-02-22T12:42:43.551Z,5.63
2019-02-22T12:45:13.290Z,5.30
2019-02-22T12:47:42.342Z,4.63
2019-02-22T12:50:11.786Z,4.43
2019-02-22T12:52:40.863Z,4.20
2019-02-22T12:55:10.377Z,4.63
2019-02-22T12:57:39.422Z,4.47
2019-02-22T13:00:12.752Z,4.77
2019-02-22T13:03:02.384Z,4.87
2019-02-22T13:05:31.706Z,4.70
2019-02-22T13:08:00.796Z,4.43
2019-02-22T13:10:29.903Z,4.00
2019-02-22T13:12:58.967Z,5.30
2019-02-22T13:15:28.031Z,4.40
2019-02-22T13:17:57.109Z,4.77
2019-02-22T13:20:26.247Z,4.73
2019-02-22T13:22:55.290Z,4.20
2019-02-22T13:25:24.354Z,4.60
2019-02-22T13:27:53.418Z,3.93
2019-02-22T13:30:22.481Z,4.93
2019-02-22T13:32:51.553Z,4.80
2019-02-22T13:35:20.697Z,4.70
2019-02-22T13:37:49.843Z,4.40
2019-02-22T13:40:18.918Z,4.33
2019-02-22T13:42:48.180Z,5.40
2019-02-22T13:45:26.136Z,5.47
2019-02-22T13:47:48.795Z,4.50
2019-02-22T13:50:18.329Z,4.07
2019-02-22T13:52:47.387Z,4.73
2019-02-22T13:55:16.795Z,4.57
2019-02-22T13:57:45.894Z,4.20
2019-02-22T14:00:18.261Z,5.10
2019-02-22T14:02:47.679Z,4.60
2019-02-22T14:05:17.099Z,4.13
2019-02-22T14:07:53.372Z,4.00
2019-02-22T14:10:22.707Z,4.33
2019-02-22T14:12:51.770Z,4.27
2019-02-22T14:15:20.998Z,4.40
2019-02-22T14:17:50.128Z,4.37
2019-02-22T14:20:19.186Z,3.63
2019-02-22T14:22:49.233Z,3.90
2019-02-22T14:25:18.290Z,4.10
2019-02-22T14:27:47.360Z,3.77
2019-02-22T14:30:17.095Z,3.60
2019-02-22T14:32:46.429Z,3.40
2019-02-22T14:35:15.486Z,3.63
2019-02-22T14:37:44.581Z,3.37
2019-02-22T14:40:14.059Z,3.23
2019-02-22T14:42:43.122Z,3.90
2019-02-22T14:45:12.182Z,3.80
2019-02-22T14:47:41.251Z,4.17
2019-02-22T14:50:14.126Z,3.90
2019-02-22T14:52:43.509Z,4.23
2019-02-22T14:55:12.636Z,3.70
2019-02-22T14:57:41.702Z,3.83
2019-02-22T15:00:18.424Z,4.70
2019-02-22T15:02:47.493Z,4.13
2019-02-22T15:05:16.619Z,4.23
2019-02-22T15:07:45.816Z,4.20
2019-02-22T15:10:14.866Z,4.80
2019-02-22T15:12:43.944Z,3.80
2019-02-22T15:15:13.775Z,3.90
2019-02-22T15:17:44.470Z,4.97
2019-02-22T15:20:13.600Z,4.70
2019-02-22T15:22:42.669Z,4.43
2019-02-22T15:25:12.597Z,5.00
2019-02-22T15:27:41.672Z,4.73
2019-02-22T15:30:11.972Z,4.80
2019-02-22T15:32:42.351Z,4.20
2019-02-22T15:35:12.484Z,4.43
2019-02-22T15:37:43.291Z,3.73
2019-02-22T15:40:12.930Z,4.47
2019-02-22T15:42:42.042Z,4.80
2019-02-22T15:45:18.751Z,4.43
2019-02-22T15:47:48.815Z,4.27
2019-02-22T15:50:18.719Z,4.67
2019-02-22T15:52:49.055Z,5.17
2019-02-22T15:55:18.129Z,4.53
2019-02-22T15:57:47.199Z,4.23
2019-02-22T16:00:18.103Z,4.10
2019-02-22T16:02:47.170Z,5.43
2019-02-22T16:05:17.878Z,4.50
2019-02-22T16:07:46.926Z,3.90
2019-02-22T16:10:15.991Z,4.60
2019-02-22T16:12:45.062Z,3.93
2019-02-22T16:15:14.386Z,3.63
2019-02-22T16:17:43.450Z,3.30
2019-02-22T16:20:13.083Z,3.60
2019-02-22T16:22:42.152Z,3.77
2019-02-22T16:25:19.141Z,3.87
2019-02-22T16:27:41.966Z,4.30
2019-02-22T16:30:12.871Z,3.60
2019-02-22T16:32:41.939Z,3.00
2019-02-22T16:35:10.994Z,4.13
2019-02-22T16:37:40.064Z,3.13
2019-02-22T16:40:10.194Z,3.70
2019-02-22T16:42:39.273Z,3.83
2019-02-22T16:45:09.708Z,4.30
2019-02-22T16:47:40.311Z,4.50
2019-02-22T16:50:10.582Z,3.90
2019-02-22T16:52:39.825Z,3.43
2019-02-22T16:55:12.842Z,3.83
2019-02-22T16:57:41.921Z,3.17
2019-02-22T17:00:12.048Z,3.17
2019-02-22T17:02:41.118Z,3.63
2019-02-22T17:05:11.437Z,4.40
2019-02-22T17:07:40.518Z,3.63
2019-02-22T17:10:10.675Z,3.87
2019-02-22T17:12:39.747Z,4.60
2019-02-22T17:15:09.879Z,4.73
2019-02-22T17:17:38.945Z,5.70
2019-02-22T17:20:09.066Z,5.07
2019-02-22T17:22:38.131Z,4.20
2019-02-22T17:25:08.556Z,4.77
2019-02-22T17:27:37.634Z,4.53
2019-02-22T17:30:08.224Z,5.57
2019-02-22T17:32:37.339Z,11.00
2019-02-22T17:35:06.399Z,4.10
2019-02-22T17:37:35.463Z,5.00
2019-02-22T17:40:06.057Z,4.77
2019-02-22T17:42:35.114Z,4.33
2019-02-22T17:45:04.942Z,4.77
2019-02-22T17:47:34.019Z,6.40
2019-02-22T17:50:03.157Z,10.80
2019-02-22T17:52:32.219Z,8.67
2019-02-22T17:55:01.290Z,7.27
2019-02-22T17:57:30.357Z,6.97
2019-02-22T17:59:59.416Z,6.77
2019-02-22T18:02:28.546Z,7.17
2019-02-22T18:04:57.627Z,6.07
2019-02-22T18:07:26.783Z,7.87
2019-02-22T18:09:55.881Z,7.93
2019-02-22T18:12:24.967Z,8.37
2019-02-22T18:14:54.044Z,6.10
2019-02-22T18:17:23.098Z,6.93
2019-02-22T18:19:52.178Z,6.70
2019-02-22T18:22:25.829Z,6.83
2019-02-22T18:24:52.011Z,7.37
2019-02-22T18:27:21.069Z,6.30
2019-02-22T18:29:50.153Z,7.00
2019-02-22T18:32:19.203Z,6.43
2019-02-22T18:34:48.339Z,7.97
2019-02-22T18:37:17.404Z,7.07
2019-02-22T18:39:46.474Z,7.47
2019-02-22T18:42:15.543Z,9.17
2019-02-22T18:44:44.615Z,7.57
2019-02-22T18:47:19.346Z,7.30
2019-02-22T18:49:44.739Z,6.80
2019-02-22T18:52:13.801Z,8.33
2019-02-22T18:54:42.880Z,7.80
2019-02-22T18:57:11.935Z,6.43
2019-02-22T18:59:41.006Z,6.57
2019-02-22T19:02:10.072Z,6.77
2019-02-22T19:04:39.149Z,6.80
2019-02-22T19:07:08.294Z,6.33
2019-02-22T19:09:37.370Z,5.43
2019-02-22T19:12:06.433Z,5.30
2019-02-22T19:14:35.521Z,6.77
2019-02-22T19:17:04.579Z,9.53
2019-02-22T19:19:33.991Z,7.20
2019-02-22T19:22:03.055Z,6.73
2019-02-22T19:24:32.138Z,7.03
2019-02-22T19:27:01.187Z,6.93
2019-02-22T19:29:30.270Z,7.20
2019-02-22T19:31:59.331Z,9.87
2019-02-22T19:34:28.400Z,7.10
2019-02-22T19:36:57.454Z,8.03
2019-02-22T19:39:26.554Z,7.73
2019-02-22T19:41:55.609Z,7.57
2019-02-22T19:44:24.678Z,7.40
2019-02-22T19:46:55.590Z,7.43
2019-02-22T19:49:24.504Z,7.80
2019-02-22T19:51:53.568Z,8.40
2019-02-22T19:54:22.638Z,10.23
2019-02-22T19:56:51.700Z,10.73
2019-02-22T19:59:20.806Z,11.53
2019-02-22T20:01:49.878Z,14.10
2019-02-22T20:04:18.977Z,12.87
2019-02-22T20:06:48.061Z,13.77
2019-02-22T20:09:17.137Z,12.57
2019-02-22T20:11:48.156Z,13.83
2019-02-22T20:14:16.984Z,13.80
2019-02-22T20:16:46.049Z,14.03
2019-02-22T20:19:15.132Z,14.90
2019-02-22T20:21:44.194Z,14.27
2019-02-22T20:24:13.331Z,13.80
2019-02-22T20:26:42.394Z,12.50
2019-02-22T20:29:11.446Z,14.07
2019-02-22T20:31:40.517Z,11.80
2019-02-22T20:34:09.593Z,13.07
2019-02-22T20:36:38.661Z,11.63
2019-02-22T20:39:07.914Z,12.43
2019-02-22T20:41:36.970Z,11.33
2019-02-22T20:44:06.050Z,12.60
2019-02-22T20:46:35.131Z,12.07
2019-02-22T20:49:04.215Z,11.33
2019-02-22T20:51:33.285Z,12.47
2019-02-22T20:54:02.368Z,15.30
2019-02-22T20:56:31.428Z,14.23
2019-02-22T20:59:00.499Z,12.57
2019-02-22T21:01:29.567Z,13.80
2019-02-22T21:03:58.643Z,12.53
2019-02-22T21:06:27.723Z,12.47
2019-02-22T21:08:56.798Z,11.87
2019-02-22T21:11:25.863Z,12.17
2019-02-22T21:13:54.998Z,10.50
2019-02-22T21:16:24.051Z,10.50
2019-02-22T21:18:53.136Z,11.13
2019-02-22T21:21:22.209Z,11.10
2019-02-22T21:23:52.106Z,13.10
2019-02-22T21:26:21.426Z,16.77
2019-02-22T21:28:50.500Z,11.20
2019-02-22T21:31:19.579Z,12.80
2019-02-22T21:33:48.641Z,11.20
2019-02-22T21:36:17.723Z,11.20
2019-02-22T21:38:47.081Z,11.20
2019-02-22T21:41:16.555Z,11.87
2019-02-22T21:43:45.690Z,11.83
2019-02-22T21:46:14.762Z,10.97
2019-02-22T21:48:43.831Z,11.07
2019-02-22T21:51:12.905Z,10.13
2019-02-22T21:53:41.966Z,10.03
2019-02-22T21:56:11.043Z,10.27
2019-02-22T21:58:40.120Z,11.97
2019-02-22T22:01:09.191Z,11.50
2019-02-22T22:03:38.259Z,13.00
2019-02-22T22:06:07.340Z,11.60
2019-02-22T22:08:36.407Z,11.17
2019-02-22T22:11:05.487Z,12.70
2019-02-22T22:13:34.547Z,11.13
2019-02-22T22:16:03.621Z,10.63
2019-02-22T22:18:38.777Z,11.57
2019-02-22T22:21:03.471Z,11.03
2019-02-22T22:23:32.720Z,11.00
2019-02-22T22:26:01.790Z,10.97
2019-02-22T22:28:30.930Z,11.63
2019-02-22T22:31:00.008Z,12.03
2019-02-22T22:33:29.073Z,12.00
2019-02-22T22:35:58.156Z,12.93
2019-02-22T22:38:27.222Z,11.27
2019-02-22T22:40:56.295Z,10.30
2019-02-22T22:43:25.367Z,10.37
2019-02-22T22:45:54.443Z,11.13
2019-02-22T22:48:23.508Z,10.57
2019-02-22T22:50:52.581Z,10.37
2019-02-22T22:53:21.643Z,9.10
2019-02-22T22:55:50.726Z,9.33
2019-02-22T22:58:19.787Z,8.80
2019-02-22T23:00:52.048Z,8.30
2019-02-22T23:03:21.356Z,8.70
2019-02-22T23:05:50.420Z,9.83
2019-02-22T23:08:19.488Z,7.97
2019-02-22T23:10:48.572Z,8.30
2019-02-22T23:13:17.635Z,8.33
2019-02-22T23:15:46.707Z,8.93
2019-02-22T23:18:15.795Z,7.93
2019-02-22T23:20:44.871Z,8.60
2019-02-22T23:23:13.938Z,8.67
2019-02-22T23:25:43.006Z,9.67
2019-02-22T23:28:12.074Z,7.90
2019-02-22T23:30:41.160Z,7.93
2019-02-22T23:33:10.241Z,7.70
2019-02-22T23:35:39.301Z,8.13
2019-02-22T23:38:08.446Z,7.50
2019-02-22T23:40:37.626Z,7.73
2019-02-22T23:43:06.768Z,7.47
2019-02-22T23:45:35.831Z,7.87
2019-02-22T23:48:04.891Z,6.47
2019-02-22T23:50:33.962Z,7.23
2019-02-22T23:53:03.020Z,7.50
2019-02-22T23:55:32.092Z,7.17
2019-02-22T23:58:01.163Z,6.77
